Terminal Aerodrome Forecast
Issued by NWS Boston, MA

Home | Current Version | Previous Version | Text Only | Print | Product List | Glossary On
Versions: 1 2 3 4 5 6 7 8 9 10 11 12 13 14 15 16 17 18 19 20 21 22 23 24 25 26 27 28 29 30 31 32 33 34 35 36 37 38
000
FTUS41 KBOX 011450 AAB
TAFORH
TAF AMD
KORH 011450Z 0115/0212 01007KT 1/4SM FG OVC002
     FM011700 03008KT 3SM -RA BR OVC003
     FM012300 03008KT 3SM -SHRA BR OVC003
     FM020200 03008KT 3SM BR OVC003
     FM020900 02007KT 3/4SM BR OVC008=

USA.gov is the U.S. government's official web portal to all federal, state and local government web resources and services.